W Hartford, Connecticut
Current Conditions -  °F | °C
As of 11:53 PM on Friday 24 Oct 2014 (Local Time) from KHFD Reporting Station
Clear Clear  
Wind Chill: 41°   Ceiling: Unl
Heat Index: 45°   Visibility: 10mi
Dew Point: 42°   Wind: 7mph
Humidity: 90%   Direction: 140°SE
Pressure: 29.8"   Gusts: NA
Location:  41.7326°N, 72.7337°W
Report Text: KHFD 250353Z AUTO 14006KT 10SM CLR 07/06 A2980 RMK AO2 SLP091 T00720056
Loading
Personal Weather Stations






























Interactive Weather Map
Tropical Storm Tracking
New forecast layout! Learn more

10-Day Weather Forecast

Advertisements
Track Severe Weather on mobile